sensor_id;sensor_type;location;lat;lon;timestamp;P1;durP1;ratioP1;P2;durP2;ratioP2
69627;SDS011;56850;51.984;5.088;2022-07-15T00:00:00;6.60;;;2.70;;
69627;SDS011;56850;51.984;5.088;2022-07-15T00:02:29;9.33;;;2.63;;
69627;SDS011;56850;51.984;5.088;2022-07-15T00:04:56;7.22;;;2.80;;
69627;SDS011;56850;51.984;5.088;2022-07-15T00:07:23;12.85;;;2.58;;
69627;SDS011;56850;51.984;5.088;2022-07-15T00:09:50;11.73;;;2.60;;
69627;SDS011;56850;51.984;5.088;2022-07-15T00:12:36;7.78;;;2.63;;
69627;SDS011;56850;51.984;5.088;2022-07-15T00:15:03;7.37;;;2.30;;
69627;SDS011;56850;51.984;5.088;2022-07-15T00:17:30;8.73;;;2.70;;
69627;SDS011;56850;51.984;5.088;2022-07-15T00:19:57;6.63;;;3.33;;
69627;SDS011;56850;51.984;5.088;2022-07-15T00:22:24;7.75;;;2.40;;
69627;SDS011;56850;51.984;5.088;2022-07-15T00:24:51;7.15;;;2.22;;
69627;SDS011;56850;51.984;5.088;2022-07-15T00:27:18;5.87;;;2.40;;
69627;SDS011;56850;51.984;5.088;2022-07-15T00:29:45;8.70;;;2.30;;
69627;SDS011;56850;51.984;5.088;2022-07-15T00:32:12;8.38;;;2.53;;
69627;SDS011;56850;51.984;5.088;2022-07-15T00:34:39;8.98;;;2.42;;
69627;SDS011;56850;51.984;5.088;2022-07-15T00:37:06;8.15;;;2.10;;
69627;SDS011;56850;51.984;5.088;2022-07-15T00:39:32;10.40;;;2.43;;
69627;SDS011;56850;51.984;5.088;2022-07-15T00:42:00;9.52;;;2.33;;
69627;SDS011;56850;51.984;5.088;2022-07-15T00:44:27;9.30;;;2.70;;
69627;SDS011;56850;51.984;5.088;2022-07-15T00:46:54;6.55;;;2.30;;
69627;SDS011;56850;51.984;5.088;2022-07-15T00:49:21;7.75;;;2.50;;
69627;SDS011;56850;51.984;5.088;2022-07-15T00:51:53;8.03;;;2.63;;
69627;SDS011;56850;51.984;5.088;2022-07-15T00:54:22;9.05;;;2.67;;
69627;SDS011;56850;51.984;5.088;2022-07-15T00:56:52;5.60;;;2.75;;
69627;SDS011;56850;51.984;5.088;2022-07-15T00:59:23;7.55;;;2.50;;
69627;SDS011;56850;51.984;5.088;2022-07-15T01:01:52;7.85;;;2.47;;
69627;SDS011;56850;51.984;5.088;2022-07-15T01:04:20;10.13;;;2.67;;
69627;SDS011;56850;51.984;5.088;2022-07-15T01:06:48;7.88;;;2.10;;
69627;SDS011;56850;51.984;5.088;2022-07-15T01:09:16;12.52;;;2.88;;
69627;SDS011;56850;51.984;5.088;2022-07-15T01:11:45;7.05;;;2.42;;
69627;SDS011;56850;51.984;5.088;2022-07-15T01:14:13;7.80;;;2.45;;
69627;SDS011;56850;51.984;5.088;2022-07-15T01:16:41;9.10;;;2.40;;
69627;SDS011;56850;51.984;5.088;2022-07-15T01:19:08;8.60;;;2.35;;
69627;SDS011;56850;51.984;5.088;2022-07-15T01:21:44;4.32;;;2.40;;
69627;SDS011;56850;51.984;5.088;2022-07-15T01:24:12;8.55;;;2.53;;
69627;SDS011;56850;51.984;5.088;2022-07-15T01:26:50;7.93;;;2.47;;
69627;SDS011;56850;51.984;5.088;2022-07-15T01:29:20;9.73;;;2.30;;
69627;SDS011;56850;51.984;5.088;2022-07-15T01:31:47;9.65;;;2.30;;
69627;SDS011;56850;51.984;5.088;2022-07-15T01:34:14;7.00;;;2.28;;
69627;SDS011;56850;51.984;5.088;2022-07-15T01:36:41;8.38;;;2.50;;
69627;SDS011;56850;51.984;5.088;2022-07-15T01:39:09;7.88;;;2.50;;
69627;SDS011;56850;51.984;5.088;2022-07-15T01:41:57;7.67;;;2.33;;
69627;SDS011;56850;51.984;5.088;2022-07-15T01:44:25;8.77;;;2.30;;
69627;SDS011;56850;51.984;5.088;2022-07-15T01:46:53;7.50;;;2.50;;
69627;SDS011;56850;51.984;5.088;2022-07-15T01:49:25;5.00;;;2.28;;
69627;SDS011;56850;51.984;5.088;2022-07-15T01:52:12;7.90;;;2.88;;
69627;SDS011;56850;51.984;5.088;2022-07-15T01:54:41;8.23;;;2.13;;
69627;SDS011;56850;51.984;5.088;2022-07-15T01:57:09;8.10;;;2.45;;
69627;SDS011;56850;51.984;5.088;2022-07-15T01:59:46;7.38;;;2.40;;
69627;SDS011;56850;51.984;5.088;2022-07-15T02:02:19;5.85;;;2.60;;
69627;SDS011;56850;51.984;5.088;2022-07-15T02:04:46;8.40;;;2.30;;
69627;SDS011;56850;51.984;5.088;2022-07-15T02:07:13;8.13;;;2.53;;
69627;SDS011;56850;51.984;5.088;2022-07-15T02:09:40;7.50;;;2.53;;
69627;SDS011;56850;51.984;5.088;2022-07-15T02:12:07;6.18;;;2.33;;
69627;SDS011;56850;51.984;5.088;2022-07-15T02:14:39;12.60;;;2.55;;
69627;SDS011;56850;51.984;5.088;2022-07-15T02:17:06;8.18;;;2.47;;
69627;SDS011;56850;51.984;5.088;2022-07-15T02:19:38;7.70;;;2.60;;
69627;SDS011;56850;51.984;5.088;2022-07-15T02:22:05;5.10;;;2.30;;
69627;SDS011;56850;51.984;5.088;2022-07-15T02:24:32;6.40;;;2.67;;
69627;SDS011;56850;51.984;5.088;2022-07-15T02:26:59;6.80;;;2.17;;
69627;SDS011;56850;51.984;5.088;2022-07-15T02:29:26;7.45;;;2.42;;
69627;SDS011;56850;51.984;5.088;2022-07-15T02:31:53;4.73;;;2.30;;
69627;SDS011;56850;51.984;5.088;2022-07-15T02:34:20;6.80;;;2.40;;
69627;SDS011;56850;51.984;5.088;2022-07-15T02:36:47;9.07;;;2.58;;
69627;SDS011;56850;51.984;5.088;2022-07-15T02:39:14;5.40;;;2.20;;
69627;SDS011;56850;51.984;5.088;2022-07-15T02:41:42;6.70;;;2.53;;
69627;SDS011;56850;51.984;5.088;2022-07-15T02:44:11;4.47;;;2.07;;
69627;SDS011;56850;51.984;5.088;2022-07-15T02:46:44;7.70;;;2.72;;
69627;SDS011;56850;51.984;5.088;2022-07-15T02:49:13;6.28;;;2.33;;
69627;SDS011;56850;51.984;5.088;2022-07-15T02:51:40;9.65;;;2.30;;
69627;SDS011;56850;51.984;5.088;2022-07-15T02:54:07;5.97;;;2.50;;
69627;SDS011;56850;51.984;5.088;2022-07-15T02:56:37;6.27;;;2.27;;
69627;SDS011;56850;51.984;5.088;2022-07-15T02:59:04;6.32;;;2.63;;
69627;SDS011;56850;51.984;5.088;2022-07-15T03:01:31;7.35;;;2.67;;
69627;SDS011;56850;51.984;5.088;2022-07-15T03:03:59;5.47;;;2.28;;
69627;SDS011;56850;51.984;5.088;2022-07-15T03:06:27;11.25;;;2.90;;
69627;SDS011;56850;51.984;5.088;2022-07-15T03:08:54;11.23;;;2.40;;
69627;SDS011;56850;51.984;5.088;2022-07-15T03:11:21;5.95;;;2.20;;
69627;SDS011;56850;51.984;5.088;2022-07-15T03:13:49;7.75;;;2.40;;
69627;SDS011;56850;51.984;5.088;2022-07-15T03:16:16;4.88;;;2.38;;
69627;SDS011;56850;51.984;5.088;2022-07-15T03:18:46;7.95;;;2.20;;
69627;SDS011;56850;51.984;5.088;2022-07-15T03:21:14;5.60;;;2.17;;
69627;SDS011;56850;51.984;5.088;2022-07-15T03:23:45;7.72;;;2.53;;
69627;SDS011;56850;51.984;5.088;2022-07-15T03:26:12;6.10;;;2.10;;
69627;SDS011;56850;51.984;5.088;2022-07-15T03:28:40;6.10;;;2.78;;
69627;SDS011;56850;51.984;5.088;2022-07-15T03:31:07;5.45;;;2.30;;
69627;SDS011;56850;51.984;5.088;2022-07-15T03:33:35;5.13;;;2.40;;
69627;SDS011;56850;51.984;5.088;2022-07-15T03:36:02;7.35;;;2.10;;
69627;SDS011;56850;51.984;5.088;2022-07-15T03:38:31;6.60;;;2.53;;
69627;SDS011;56850;51.984;5.088;2022-07-15T03:40:58;8.48;;;2.10;;
69627;SDS011;56850;51.984;5.088;2022-07-15T03:43:26;6.00;;;2.17;;
69627;SDS011;56850;51.984;5.088;2022-07-15T03:45:56;7.60;;;1.80;;
69627;SDS011;56850;51.984;5.088;2022-07-15T03:48:23;4.50;;;2.17;;
69627;SDS011;56850;51.984;5.088;2022-07-15T03:50:50;6.18;;;2.20;;
69627;SDS011;56850;51.984;5.088;2022-07-15T03:53:17;10.07;;;2.20;;
69627;SDS011;56850;51.984;5.088;2022-07-15T03:55:44;8.60;;;2.63;;
69627;SDS011;56850;51.984;5.088;2022-07-15T03:58:11;7.77;;;2.00;;
69627;SDS011;56850;51.984;5.088;2022-07-15T04:00:38;6.88;;;1.98;;
69627;SDS011;56850;51.984;5.088;2022-07-15T04:03:05;8.20;;;2.03;;
69627;SDS011;56850;51.984;5.088;2022-07-15T04:05:32;5.25;;;1.80;;
69627;SDS011;56850;51.984;5.088;2022-07-15T04:07:59;10.68;;;2.50;;
69627;SDS011;56850;51.984;5.088;2022-07-15T04:10:26;7.30;;;1.90;;
69627;SDS011;56850;51.984;5.088;2022-07-15T04:12:53;7.25;;;2.28;;
69627;SDS011;56850;51.984;5.088;2022-07-15T04:15:20;6.25;;;2.20;;
69627;SDS011;56850;51.984;5.088;2022-07-15T04:17:47;4.43;;;1.77;;
69627;SDS011;56850;51.984;5.088;2022-07-15T04:20:18;5.95;;;2.08;;
69627;SDS011;56850;51.984;5.088;2022-07-15T04:22:47;5.50;;;2.20;;
69627;SDS011;56850;51.984;5.088;2022-07-15T04:25:15;7.22;;;2.10;;
69627;SDS011;56850;51.984;5.088;2022-07-15T04:27:45;7.97;;;2.25;;
69627;SDS011;56850;51.984;5.088;2022-07-15T04:30:16;7.95;;;1.98;;
69627;SDS011;56850;51.984;5.088;2022-07-15T04:32:47;8.70;;;2.13;;
69627;SDS011;56850;51.984;5.088;2022-07-15T04:35:14;5.93;;;1.77;;
69627;SDS011;56850;51.984;5.088;2022-07-15T04:37:45;9.40;;;2.35;;
69627;SDS011;56850;51.984;5.088;2022-07-15T04:40:12;7.25;;;2.35;;
69627;SDS011;56850;51.984;5.088;2022-07-15T04:42:42;10.57;;;2.33;;
69627;SDS011;56850;51.984;5.088;2022-07-15T04:45:11;4.82;;;2.17;;
69627;SDS011;56850;51.984;5.088;2022-07-15T04:47:40;6.93;;;2.27;;
69627;SDS011;56850;51.984;5.088;2022-07-15T04:50:10;7.13;;;2.05;;
69627;SDS011;56850;51.984;5.088;2022-07-15T04:52:57;9.35;;;2.90;;
69627;SDS011;56850;51.984;5.088;2022-07-15T04:55:24;9.38;;;1.90;;
69627;SDS011;56850;51.984;5.088;2022-07-15T04:58:01;7.32;;;2.30;;
69627;SDS011;56850;51.984;5.088;2022-07-15T05:00:28;5.73;;;1.90;;
69627;SDS011;56850;51.984;5.088;2022-07-15T05:02:55;6.78;;;2.00;;
69627;SDS011;56850;51.984;5.088;2022-07-15T05:05:24;9.40;;;2.08;;
69627;SDS011;56850;51.984;5.088;2022-07-15T05:07:51;6.65;;;2.13;;
69627;SDS011;56850;51.984;5.088;2022-07-15T05:10:18;8.60;;;2.42;;
69627;SDS011;56850;51.984;5.088;2022-07-15T05:12:52;6.30;;;1.83;;
69627;SDS011;56850;51.984;5.088;2022-07-15T05:15:19;6.55;;;2.10;;
69627;SDS011;56850;51.984;5.088;2022-07-15T05:17:46;8.02;;;2.03;;
69627;SDS011;56850;51.984;5.088;2022-07-15T05:20:18;5.22;;;2.00;;
69627;SDS011;56850;51.984;5.088;2022-07-15T05:22:46;6.55;;;2.35;;
69627;SDS011;56850;51.984;5.088;2022-07-15T05:25:14;4.80;;;1.80;;
69627;SDS011;56850;51.984;5.088;2022-07-15T05:27:41;5.35;;;2.05;;
69627;SDS011;56850;51.984;5.088;2022-07-15T05:30:08;6.03;;;1.75;;
69627;SDS011;56850;51.984;5.088;2022-07-15T05:32:36;10.00;;;2.10;;
69627;SDS011;56850;51.984;5.088;2022-07-15T05:35:08;5.90;;;1.90;;
69627;SDS011;56850;51.984;5.088;2022-07-15T05:37:38;6.40;;;1.57;;
69627;SDS011;56850;51.984;5.088;2022-07-15T05:40:08;6.38;;;1.60;;
69627;SDS011;56850;51.984;5.088;2022-07-15T05:42:41;4.07;;;1.50;;
69627;SDS011;56850;51.984;5.088;2022-07-15T05:45:09;5.78;;;1.60;;
69627;SDS011;56850;51.984;5.088;2022-07-15T05:47:46;2.55;;;1.35;;
69627;SDS011;56850;51.984;5.088;2022-07-15T05:50:20;5.07;;;1.63;;
69627;SDS011;56850;51.984;5.088;2022-07-15T05:52:47;5.85;;;1.60;;
69627;SDS011;56850;51.984;5.088;2022-07-15T05:55:17;3.65;;;1.67;;
69627;SDS011;56850;51.984;5.088;2022-07-15T05:57:44;8.05;;;1.52;;
69627;SDS011;56850;51.984;5.088;2022-07-15T06:00:12;7.38;;;1.95;;
69627;SDS011;56850;51.984;5.088;2022-07-15T06:02:39;6.40;;;1.57;;
69627;SDS011;56850;51.984;5.088;2022-07-15T06:05:12;8.48;;;1.50;;
69627;SDS011;56850;51.984;5.088;2022-07-15T06:07:44;6.28;;;1.98;;
69627;SDS011;56850;51.984;5.088;2022-07-15T06:10:13;5.95;;;1.90;;
69627;SDS011;56850;51.984;5.088;2022-07-15T06:12:40;7.30;;;1.50;;
69627;SDS011;56850;51.984;5.088;2022-07-15T06:15:07;9.10;;;1.60;;
69627;SDS011;56850;51.984;5.088;2022-07-15T06:17:34;6.90;;;1.42;;
69627;SDS011;56850;51.984;5.088;2022-07-15T06:20:03;6.35;;;1.75;;
69627;SDS011;56850;51.984;5.088;2022-07-15T06:22:38;6.55;;;1.42;;
69627;SDS011;56850;51.984;5.088;2022-07-15T06:25:05;3.97;;;1.48;;
69627;SDS011;56850;51.984;5.088;2022-07-15T06:27:33;6.13;;;1.33;;
69627;SDS011;56850;51.984;5.088;2022-07-15T06:30:00;3.67;;;1.17;;
69627;SDS011;56850;51.984;5.088;2022-07-15T06:32:27;7.13;;;1.40;;
69627;SDS011;56850;51.984;5.088;2022-07-15T06:34:54;5.28;;;1.77;;
69627;SDS011;56850;51.984;5.088;2022-07-15T06:37:21;7.45;;;1.70;;
69627;SDS011;56850;51.984;5.088;2022-07-15T06:39:49;9.03;;;1.40;;
69627;SDS011;56850;51.984;5.088;2022-07-15T06:42:19;4.00;;;1.27;;
69627;SDS011;56850;51.984;5.088;2022-07-15T06:44:58;6.38;;;1.75;;
69627;SDS011;56850;51.984;5.088;2022-07-15T06:47:25;5.32;;;1.30;;
69627;SDS011;56850;51.984;5.088;2022-07-15T06:49:57;5.88;;;1.60;;
69627;SDS011;56850;51.984;5.088;2022-07-15T06:52:25;8.37;;;1.77;;
69627;SDS011;56850;51.984;5.088;2022-07-15T06:54:54;6.30;;;1.50;;
69627;SDS011;56850;51.984;5.088;2022-07-15T06:57:22;4.68;;;1.35;;
69627;SDS011;56850;51.984;5.088;2022-07-15T06:59:51;6.00;;;1.40;;
69627;SDS011;56850;51.984;5.088;2022-07-15T07:02:21;6.03;;;1.42;;
69627;SDS011;56850;51.984;5.088;2022-07-15T07:04:51;6.83;;;1.47;;
69627;SDS011;56850;51.984;5.088;2022-07-15T07:07:19;9.48;;;1.60;;
69627;SDS011;56850;51.984;5.088;2022-07-15T07:09:48;5.25;;;1.40;;
69627;SDS011;56850;51.984;5.088;2022-07-15T07:12:16;9.23;;;1.45;;
69627;SDS011;56850;51.984;5.088;2022-07-15T07:14:42;9.68;;;2.13;;
69627;SDS011;56850;51.984;5.088;2022-07-15T07:17:09;9.47;;;1.53;;
69627;SDS011;56850;51.984;5.088;2022-07-15T07:19:36;7.63;;;1.50;;
69627;SDS011;56850;51.984;5.088;2022-07-15T07:22:03;11.13;;;2.03;;
69627;SDS011;56850;51.984;5.088;2022-07-15T07:24:30;5.40;;;1.73;;
69627;SDS011;56850;51.984;5.088;2022-07-15T07:26:57;8.07;;;1.88;;
69627;SDS011;56850;51.984;5.088;2022-07-15T07:29:31;7.67;;;1.73;;
69627;SDS011;56850;51.984;5.088;2022-07-15T07:31:59;9.95;;;3.15;;
69627;SDS011;56850;51.984;5.088;2022-07-15T07:34:26;8.52;;;1.90;;
69627;SDS011;56850;51.984;5.088;2022-07-15T07:36:53;7.30;;;1.90;;
69627;SDS011;56850;51.984;5.088;2022-07-15T07:39:20;9.52;;;2.03;;
69627;SDS011;56850;51.984;5.088;2022-07-15T07:41:47;6.77;;;1.70;;
69627;SDS011;56850;51.984;5.088;2022-07-15T07:44:19;5.80;;;1.55;;
69627;SDS011;56850;51.984;5.088;2022-07-15T07:46:47;6.32;;;1.67;;
69627;SDS011;56850;51.984;5.088;2022-07-15T07:49:14;3.05;;;1.13;;
69627;SDS011;56850;51.984;5.088;2022-07-15T07:52:02;2.17;;;1.17;;
69627;SDS011;56850;51.984;5.088;2022-07-15T07:54:30;8.50;;;1.43;;
69627;SDS011;56850;51.984;5.088;2022-07-15T07:56:58;4.60;;;1.20;;
69627;SDS011;56850;51.984;5.088;2022-07-15T07:59:25;5.80;;;1.55;;
69627;SDS011;56850;51.984;5.088;2022-07-15T08:01:53;5.20;;;1.50;;
69627;SDS011;56850;51.984;5.088;2022-07-15T08:04:20;3.33;;;1.48;;
69627;SDS011;56850;51.984;5.088;2022-07-15T08:06:47;5.83;;;1.40;;
69627;SDS011;56850;51.984;5.088;2022-07-15T08:09:14;5.72;;;1.20;;
69627;SDS011;56850;51.984;5.088;2022-07-15T08:11:43;4.78;;;1.45;;
69627;SDS011;56850;51.984;5.088;2022-07-15T08:14:11;9.25;;;1.70;;
69627;SDS011;56850;51.984;5.088;2022-07-15T08:16:38;6.20;;;1.30;;
69627;SDS011;56850;51.984;5.088;2022-07-15T08:19:08;2.63;;;1.13;;
69627;SDS011;56850;51.984;5.088;2022-07-15T08:21:40;7.53;;;1.42;;
69627;SDS011;56850;51.984;5.088;2022-07-15T08:24:07;5.85;;;1.20;;
69627;SDS011;56850;51.984;5.088;2022-07-15T08:26:34;6.55;;;1.45;;
69627;SDS011;56850;51.984;5.088;2022-07-15T08:29:02;4.05;;;1.20;;
69627;SDS011;56850;51.984;5.088;2022-07-15T08:31:35;5.17;;;1.43;;
69627;SDS011;56850;51.984;5.088;2022-07-15T08:34:03;5.03;;;1.30;;
69627;SDS011;56850;51.984;5.088;2022-07-15T08:36:31;4.30;;;1.20;;
69627;SDS011;56850;51.984;5.088;2022-07-15T08:38:58;4.10;;;1.00;;
69627;SDS011;56850;51.984;5.088;2022-07-15T08:41:25;3.95;;;1.20;;
69627;SDS011;56850;51.984;5.088;2022-07-15T08:43:52;5.10;;;1.20;;
69627;SDS011;56850;51.984;5.088;2022-07-15T08:46:19;2.47;;;0.90;;
69627;SDS011;56850;51.984;5.088;2022-07-15T08:48:50;5.30;;;1.13;;
69627;SDS011;56850;51.984;5.088;2022-07-15T08:51:20;4.00;;;1.30;;
69627;SDS011;56850;51.984;5.088;2022-07-15T08:53:50;2.38;;;1.13;;
69627;SDS011;56850;51.984;5.088;2022-07-15T08:56:18;3.17;;;1.10;;
69627;SDS011;56850;51.984;5.088;2022-07-15T08:58:45;3.28;;;1.10;;
69627;SDS011;56850;51.984;5.088;2022-07-15T09:01:24;3.63;;;1.20;;
69627;SDS011;56850;51.984;5.088;2022-07-15T11:00:00;2.88;;;0.90;;
69627;SDS011;56850;51.984;5.088;2022-07-15T11:02:28;2.30;;;0.80;;
69627;SDS011;56850;51.984;5.088;2022-07-15T11:05:16;3.65;;;0.77;;
69627;SDS011;56850;51.984;5.088;2022-07-15T11:07:46;6.18;;;1.10;;
69627;SDS011;56850;51.984;5.088;2022-07-15T11:10:13;1.70;;;0.85;;
69627;SDS011;56850;51.984;5.088;2022-07-15T11:15:15;2.93;;;1.10;;
69627;SDS011;56850;51.984;5.088;2022-07-15T11:17:47;2.42;;;1.38;;
69627;SDS011;56850;51.984;5.088;2022-07-15T11:20:25;4.72;;;1.17;;
69627;SDS011;56850;51.984;5.088;2022-07-15T11:22:56;1.80;;;0.98;;
69627;SDS011;56850;51.984;5.088;2022-07-15T11:25:25;2.53;;;1.00;;
69627;SDS011;56850;51.984;5.088;2022-07-15T11:28:07;3.03;;;1.00;;
69627;SDS011;56850;51.984;5.088;2022-07-15T11:30:39;5.07;;;1.10;;
69627;SDS011;56850;51.984;5.088;2022-07-15T11:33:15;3.55;;;1.00;;
69627;SDS011;56850;51.984;5.088;2022-07-15T11:35:48;2.25;;;0.90;;
69627;SDS011;56850;51.984;5.088;2022-07-15T11:38:26;2.45;;;1.20;;
69627;SDS011;56850;51.984;5.088;2022-07-15T11:40:56;1.97;;;1.03;;
69627;SDS011;56850;51.984;5.088;2022-07-15T11:44:02;3.90;;;1.20;;
69627;SDS011;56850;51.984;5.088;2022-07-15T11:46:50;2.80;;;1.30;;
69627;SDS011;56850;51.984;5.088;2022-07-15T11:51:56;5.20;;;1.23;;
69627;SDS011;56850;51.984;5.088;2022-07-15T11:54:24;1.40;;;0.90;;
69627;SDS011;56850;51.984;5.088;2022-07-15T11:56:56;1.55;;;0.90;;
69627;SDS011;56850;51.984;5.088;2022-07-15T11:59:24;2.85;;;1.30;;
69627;SDS011;56850;51.984;5.088;2022-07-15T12:04:30;2.42;;;1.17;;
69627;SDS011;56850;51.984;5.088;2022-07-15T12:06:58;3.87;;;1.77;;
69627;SDS011;56850;51.984;5.088;2022-07-15T12:09:25;2.25;;;1.45;;
69627;SDS011;56850;51.984;5.088;2022-07-15T12:11:53;3.90;;;1.50;;
69627;SDS011;56850;51.984;5.088;2022-07-15T12:14:21;1.90;;;1.20;;
69627;SDS011;56850;51.984;5.088;2022-07-15T12:16:52;1.73;;;1.30;;
69627;SDS011;56850;51.984;5.088;2022-07-15T12:19:20;4.33;;;1.50;;
69627;SDS011;56850;51.984;5.088;2022-07-15T12:21:51;3.03;;;1.50;;
69627;SDS011;56850;51.984;5.088;2022-07-15T12:24:26;2.90;;;1.30;;
69627;SDS011;56850;51.984;5.088;2022-07-15T12:27:02;3.35;;;1.20;;
69627;SDS011;56850;51.984;5.088;2022-07-15T12:29:30;3.13;;;1.52;;
69627;SDS011;56850;51.984;5.088;2022-07-15T12:32:18;3.87;;;1.33;;
69627;SDS011;56850;51.984;5.088;2022-07-15T12:34:58;4.10;;;1.35;;
69627;SDS011;56850;51.984;5.088;2022-07-15T12:37:27;3.25;;;1.40;;
69627;SDS011;56850;51.984;5.088;2022-07-15T12:40:20;3.47;;;1.55;;
69627;SDS011;56850;51.984;5.088;2022-07-15T12:42:50;2.92;;;1.50;;
69627;SDS011;56850;51.984;5.088;2022-07-15T12:48:00;1.75;;;1.20;;
69627;SDS011;56850;51.984;5.088;2022-07-15T12:50:34;2.30;;;1.25;;
69627;SDS011;56850;51.984;5.088;2022-07-15T12:53:03;5.13;;;1.20;;
69627;SDS011;56850;51.984;5.088;2022-07-15T12:55:31;5.13;;;1.20;;
69627;SDS011;56850;51.984;5.088;2022-07-15T12:58:07;4.13;;;1.30;;
69627;SDS011;56850;51.984;5.088;2022-07-15T13:00:35;3.75;;;1.25;;
69627;SDS011;56850;51.984;5.088;2022-07-15T13:03:11;2.67;;;1.30;;
69627;SDS011;56850;51.984;5.088;2022-07-15T13:05:51;3.53;;;1.40;;
69627;SDS011;56850;51.984;5.088;2022-07-15T13:08:22;3.85;;;1.33;;
69627;SDS011;56850;51.984;5.088;2022-07-15T13:10:52;3.27;;;1.40;;
69627;SDS011;56850;51.984;5.088;2022-07-15T13:13:22;3.70;;;1.20;;
69627;SDS011;56850;51.984;5.088;2022-07-15T13:15:51;3.08;;;1.48;;
69627;SDS011;56850;51.984;5.088;2022-07-15T13:18:18;2.92;;;1.70;;
69627;SDS011;56850;51.984;5.088;2022-07-15T13:20:46;2.42;;;1.33;;
69627;SDS011;56850;51.984;5.088;2022-07-15T13:23:14;2.57;;;1.23;;
69627;SDS011;56850;51.984;5.088;2022-07-15T13:25:41;4.35;;;1.23;;
69627;SDS011;56850;51.984;5.088;2022-07-15T13:28:09;5.50;;;1.35;;
69627;SDS011;56850;51.984;5.088;2022-07-15T13:30:37;3.75;;;1.40;;
69627;SDS011;56850;51.984;5.088;2022-07-15T13:33:04;4.07;;;1.40;;
69627;SDS011;56850;51.984;5.088;2022-07-15T13:35:32;7.77;;;1.50;;
69627;SDS011;56850;51.984;5.088;2022-07-15T13:38:00;4.38;;;1.40;;
69627;SDS011;56850;51.984;5.088;2022-07-15T13:40:27;5.63;;;1.60;;
69627;SDS011;56850;51.984;5.088;2022-07-15T13:42:54;5.95;;;1.40;;
69627;SDS011;56850;51.984;5.088;2022-07-15T13:45:21;7.93;;;1.58;;
69627;SDS011;56850;51.984;5.088;2022-07-15T13:47:49;5.80;;;1.73;;
69627;SDS011;56850;51.984;5.088;2022-07-15T13:50:16;4.50;;;1.73;;
69627;SDS011;56850;51.984;5.088;2022-07-15T13:53:01;4.50;;;1.48;;
69627;SDS011;56850;51.984;5.088;2022-07-15T13:55:28;3.08;;;1.60;;
69627;SDS011;56850;51.984;5.088;2022-07-15T13:57:56;2.35;;;1.40;;
69627;SDS011;56850;51.984;5.088;2022-07-15T14:00:24;2.97;;;1.50;;
69627;SDS011;56850;51.984;5.088;2022-07-15T14:02:53;4.68;;;1.70;;
69627;SDS011;56850;51.984;5.088;2022-07-15T14:05:21;5.07;;;1.80;;
69627;SDS011;56850;51.984;5.088;2022-07-15T14:07:49;3.38;;;1.50;;
69627;SDS011;56850;51.984;5.088;2022-07-15T14:10:16;5.45;;;1.90;;
69627;SDS011;56850;51.984;5.088;2022-07-15T14:12:43;3.43;;;1.70;;
69627;SDS011;56850;51.984;5.088;2022-07-15T14:15:11;3.75;;;1.60;;
69627;SDS011;56850;51.984;5.088;2022-07-15T14:17:49;3.35;;;1.90;;
69627;SDS011;56850;51.984;5.088;2022-07-15T14:20:16;5.70;;;1.55;;
69627;SDS011;56850;51.984;5.088;2022-07-15T14:22:43;4.15;;;1.52;;
69627;SDS011;56850;51.984;5.088;2022-07-15T14:25:10;7.03;;;1.90;;
69627;SDS011;56850;51.984;5.088;2022-07-15T14:27:38;4.68;;;1.70;;
69627;SDS011;56850;51.984;5.088;2022-07-15T14:30:05;3.92;;;1.77;;
69627;SDS011;56850;51.984;5.088;2022-07-15T14:32:35;3.95;;;1.60;;
69627;SDS011;56850;51.984;5.088;2022-07-15T14:35:03;7.20;;;1.80;;
69627;SDS011;56850;51.984;5.088;2022-07-15T14:37:30;3.80;;;1.63;;
69627;SDS011;56850;51.984;5.088;2022-07-15T14:40:00;3.40;;;1.70;;
69627;SDS011;56850;51.984;5.088;2022-07-15T14:42:29;5.43;;;1.88;;
69627;SDS011;56850;51.984;5.088;2022-07-15T14:44:57;3.38;;;1.88;;
69627;SDS011;56850;51.984;5.088;2022-07-15T14:47:25;8.63;;;2.20;;
69627;SDS011;56850;51.984;5.088;2022-07-15T14:49:51;7.50;;;1.80;;
69627;SDS011;56850;51.984;5.088;2022-07-15T14:52:18;3.30;;;1.52;;
69627;SDS011;56850;51.984;5.088;2022-07-15T14:54:45;4.78;;;1.90;;
69627;SDS011;56850;51.984;5.088;2022-07-15T14:57:12;4.40;;;1.75;;
69627;SDS011;56850;51.984;5.088;2022-07-15T14:59:39;4.30;;;1.90;;
69627;SDS011;56850;51.984;5.088;2022-07-15T15:02:07;3.27;;;1.70;;
69627;SDS011;56850;51.984;5.088;2022-07-15T15:04:34;5.15;;;1.92;;
69627;SDS011;56850;51.984;5.088;2022-07-15T15:07:02;4.75;;;1.80;;
69627;SDS011;56850;51.984;5.088;2022-07-15T15:09:30;3.88;;;1.80;;
69627;SDS011;56850;51.984;5.088;2022-07-15T15:11:57;4.43;;;1.70;;
69627;SDS011;56850;51.984;5.088;2022-07-15T15:14:33;5.00;;;1.60;;
69627;SDS011;56850;51.984;5.088;2022-07-15T15:17:01;6.38;;;1.95;;
69627;SDS011;56850;51.984;5.088;2022-07-15T15:19:31;5.78;;;1.85;;
69627;SDS011;56850;51.984;5.088;2022-07-15T15:21:58;5.45;;;1.58;;
69627;SDS011;56850;51.984;5.088;2022-07-15T15:24:26;5.90;;;2.00;;
69627;SDS011;56850;51.984;5.088;2022-07-15T15:26:53;5.97;;;1.90;;
69627;SDS011;56850;51.984;5.088;2022-07-15T15:29:20;4.55;;;1.90;;
69627;SDS011;56850;51.984;5.088;2022-07-15T15:31:48;6.05;;;2.00;;
69627;SDS011;56850;51.984;5.088;2022-07-15T15:34:15;3.90;;;1.67;;
69627;SDS011;56850;51.984;5.088;2022-07-15T15:36:44;7.05;;;1.88;;
69627;SDS011;56850;51.984;5.088;2022-07-15T15:39:14;6.17;;;1.83;;
69627;SDS011;56850;51.984;5.088;2022-07-15T15:41:41;3.47;;;1.60;;
69627;SDS011;56850;51.984;5.088;2022-07-15T15:44:08;5.32;;;1.80;;
69627;SDS011;56850;51.984;5.088;2022-07-15T15:46:35;3.90;;;1.70;;
69627;SDS011;56850;51.984;5.088;2022-07-15T15:49:02;5.30;;;2.03;;
69627;SDS011;56850;51.984;5.088;2022-07-15T15:51:29;4.07;;;2.00;;
69627;SDS011;56850;51.984;5.088;2022-07-15T15:53:56;5.15;;;1.70;;
69627;SDS011;56850;51.984;5.088;2022-07-15T15:56:23;6.30;;;2.05;;
69627;SDS011;56850;51.984;5.088;2022-07-15T15:58:50;3.50;;;1.92;;
69627;SDS011;56850;51.984;5.088;2022-07-15T16:01:17;6.03;;;1.83;;
69627;SDS011;56850;51.984;5.088;2022-07-15T16:03:44;5.13;;;1.90;;
69627;SDS011;56850;51.984;5.088;2022-07-15T16:06:11;6.07;;;1.90;;
69627;SDS011;56850;51.984;5.088;2022-07-15T16:08:47;3.80;;;2.00;;
69627;SDS011;56850;51.984;5.088;2022-07-15T16:11:15;6.63;;;1.67;;
69627;SDS011;56850;51.984;5.088;2022-07-15T16:13:42;8.63;;;2.20;;
69627;SDS011;56850;51.984;5.088;2022-07-15T16:16:10;6.03;;;1.90;;
69627;SDS011;56850;51.984;5.088;2022-07-15T16:18:37;4.22;;;1.88;;
69627;SDS011;56850;51.984;5.088;2022-07-15T16:21:04;4.70;;;1.92;;
69627;SDS011;56850;51.984;5.088;2022-07-15T16:23:32;5.72;;;1.70;;
69627;SDS011;56850;51.984;5.088;2022-07-15T16:25:59;4.47;;;1.75;;
69627;SDS011;56850;51.984;5.088;2022-07-15T16:28:26;4.50;;;1.80;;
69627;SDS011;56850;51.984;5.088;2022-07-15T16:30:53;2.83;;;1.58;;
69627;SDS011;56850;51.984;5.088;2022-07-15T16:33:20;4.82;;;1.75;;
69627;SDS011;56850;51.984;5.088;2022-07-15T16:35:47;5.82;;;1.77;;
69627;SDS011;56850;51.984;5.088;2022-07-15T16:38:14;3.95;;;1.48;;
69627;SDS011;56850;51.984;5.088;2022-07-15T16:40:44;3.07;;;1.60;;
69627;SDS011;56850;51.984;5.088;2022-07-15T16:43:11;3.83;;;1.88;;
69627;SDS011;56850;51.984;5.088;2022-07-15T16:45:38;4.32;;;1.80;;
69627;SDS011;56850;51.984;5.088;2022-07-15T16:48:04;6.35;;;2.08;;
69627;SDS011;56850;51.984;5.088;2022-07-15T16:50:32;5.00;;;2.03;;
69627;SDS011;56850;51.984;5.088;2022-07-15T16:52:59;5.13;;;1.83;;
69627;SDS011;56850;51.984;5.088;2022-07-15T16:55:26;4.97;;;1.83;;
69627;SDS011;56850;51.984;5.088;2022-07-15T16:57:53;6.78;;;2.00;;
69627;SDS011;56850;51.984;5.088;2022-07-15T17:00:20;3.83;;;1.80;;
69627;SDS011;56850;51.984;5.088;2022-07-15T17:02:50;7.20;;;2.08;;
69627;SDS011;56850;51.984;5.088;2022-07-15T17:05:18;6.63;;;1.60;;